アシガバート の空港の天気 - METARとTAF

アシガバート空港 ( UTAA / ASB ) - トルクメニスタン アシガバート
飛行場実況気象(Metar)
観測時間10/23 18:00 TMT (10/23 13:00 UTC)
風向・風速西北西 5m/s
視程10km以上
天気現象
少しの雲 雲底高度 3050m
気温22℃
湿度33%
気圧1016hPa
METARUTAA 231300Z 30009KT 9999 FEW100 22/05 Q1016 R88/70D NOSIG
過去の天気等 Google飛行場航空写真 Wunderground天気予報

過去48時間のMETAR

飛行場予報(TAF)
発表時間: 10/23 15:30 TMT (10/23 10:30 UTC)
予報対象時間: 23日17時 TMT ~ 24日17時 TMT
風向・風速北北東 9m/s
視程5,000m
全天の4割程度の雲 雲底高度 1,520m
23日19時 TMT ~ 24日7時 TMT に一時的に
風向・風速南西 7m/s
視程2,000m
天気現象もや
24日11時 TMT ~ 24日17時 TMT に一時的に
風向・風速東 7m/s 瞬間風速 12m/s
TAF UTAA 231030Z 2312/2412 02018KT 5000 SCT050 530009
TEMPO 2314/2402 22014KT 2000 BR
TEMPO 2406/2412 08014G24KT